createdAt,value
2022-08-26T00:02:07.570Z,20.85
2022-08-26T00:04:37.758Z,20.83
2022-08-26T00:07:06.700Z,20.82
2022-08-26T00:09:39.013Z,20.80
2022-08-26T00:12:13.191Z,20.78
2022-08-26T00:14:44.628Z,20.76
2022-08-26T00:17:14.390Z,20.73
2022-08-26T00:19:45.033Z,20.69
2022-08-26T00:22:14.630Z,20.65
2022-08-26T00:24:50.479Z,20.63
2022-08-26T00:27:19.623Z,20.61
2022-08-26T00:29:49.298Z,20.58
2022-08-26T00:32:18.355Z,20.56
2022-08-26T00:34:48.310Z,20.54
2022-08-26T00:37:16.660Z,20.52
2022-08-26T00:39:45.733Z,20.50
2022-08-26T00:42:14.483Z,20.49
2022-08-26T00:44:44.679Z,20.47
2022-08-26T00:47:19.718Z,20.45
2022-08-26T00:49:48.923Z,20.42
2022-08-26T00:52:22.930Z,20.39
2022-08-26T00:54:57.756Z,20.37
2022-08-26T00:57:26.745Z,20.35
2022-08-26T00:59:58.162Z,20.33
2022-08-26T01:02:26.930Z,20.31
2022-08-26T01:05:00.582Z,20.29
2022-08-26T01:07:31.239Z,20.26
2022-08-26T01:10:00.524Z,20.24
2022-08-26T01:12:32.317Z,20.21
2022-08-26T01:15:01.753Z,20.18
2022-08-26T01:17:30.600Z,20.15
2022-08-26T01:20:06.793Z,20.12
2022-08-26T01:22:44.994Z,20.09
2022-08-26T01:25:14.502Z,20.04
2022-08-26T01:27:44.109Z,19.99
2022-08-26T01:30:15.042Z,19.96
2022-08-26T01:32:43.827Z,19.92
2022-08-26T01:35:12.319Z,19.88
2022-08-26T01:37:41.885Z,19.85
2022-08-26T01:40:17.247Z,19.82
2022-08-26T01:42:47.431Z,19.79
2022-08-26T01:45:19.803Z,19.77
2022-08-26T01:47:56.874Z,19.76
2022-08-26T01:50:30.490Z,19.74
2022-08-26T01:53:02.651Z,19.73
2022-08-26T01:55:32.926Z,19.71
2022-08-26T01:58:05.305Z,19.69
2022-08-26T02:00:34.706Z,19.66
2022-08-26T02:03:18.213Z,19.65
2022-08-26T02:05:51.394Z,19.63
2022-08-26T02:08:24.703Z,19.62
2022-08-26T02:10:55.399Z,19.60
2022-08-26T02:13:27.144Z,19.58
2022-08-26T02:15:57.357Z,19.57
2022-08-26T02:18:27.275Z,19.56
2022-08-26T02:20:57.039Z,19.54
2022-08-26T02:23:25.900Z,19.53
2022-08-26T02:26:04.227Z,19.51
2022-08-26T02:28:36.429Z,19.49
2022-08-26T02:31:05.496Z,19.47
2022-08-26T02:33:36.498Z,19.43
2022-08-26T02:36:06.591Z,19.40
2022-08-26T02:38:36.429Z,19.38
2022-08-26T02:41:05.728Z,19.37
2022-08-26T02:43:36.838Z,19.35
2022-08-26T02:46:07.000Z,19.34
2022-08-26T02:48:35.622Z,19.34
2022-08-26T02:51:05.428Z,19.34
2022-08-26T02:53:34.037Z,19.32
2022-08-26T02:56:06.504Z,19.32
2022-08-26T02:58:36.278Z,19.31
2022-08-26T03:01:05.201Z,19.30
2022-08-26T03:03:34.174Z,19.29
2022-08-26T03:06:02.774Z,19.28
2022-08-26T03:08:31.068Z,19.25
2022-08-26T03:10:59.580Z,19.24
2022-08-26T03:13:30.830Z,19.24
2022-08-26T03:16:01.681Z,19.23
2022-08-26T03:18:30.374Z,19.24
2022-08-26T03:21:06.824Z,19.22
2022-08-26T03:23:35.763Z,19.21
2022-08-26T03:26:04.318Z,19.19
2022-08-26T03:28:33.066Z,19.18
2022-08-26T03:31:01.508Z,19.15
2022-08-26T03:33:30.962Z,19.14
2022-08-26T03:36:03.604Z,19.12
2022-08-26T03:38:32.978Z,19.11
2022-08-26T03:41:01.574Z,19.10
2022-08-26T03:43:31.224Z,19.06
2022-08-26T03:46:04.257Z,19.02
2022-08-26T03:48:33.753Z,19.00
2022-08-26T03:51:04.721Z,19.00
2022-08-26T03:53:33.071Z,19.00
2022-08-26T03:56:05.684Z,19.01
2022-08-26T03:58:34.288Z,19.02
2022-08-26T04:01:03.253Z,19.02
2022-08-26T04:03:50.287Z,19.03
2022-08-26T04:06:19.070Z,19.04
2022-08-26T04:08:47.998Z,19.06
2022-08-26T04:11:21.710Z,19.09
2022-08-26T04:13:50.742Z,19.12
2022-08-26T04:16:19.154Z,19.14
2022-08-26T04:18:47.755Z,19.17
2022-08-26T04:21:16.400Z,19.22
2022-08-26T04:23:47.679Z,19.27
2022-08-26T04:26:17.845Z,19.33
2022-08-26T04:28:46.317Z,19.34
2022-08-26T04:31:17.775Z,19.36
2022-08-26T04:33:49.931Z,19.36
2022-08-26T04:36:19.810Z,19.36
2022-08-26T04:38:50.279Z,19.41
2022-08-26T04:41:20.522Z,19.46
2022-08-26T04:43:49.803Z,19.53
2022-08-26T04:46:22.144Z,19.61
2022-08-26T04:48:51.784Z,19.69
2022-08-26T04:51:27.113Z,19.76
2022-08-26T04:53:57.542Z,19.84
2022-08-26T04:56:26.825Z,19.92
2022-08-26T04:58:55.535Z,20.00
2022-08-26T05:01:24.198Z,20.10
2022-08-26T05:03:52.801Z,20.21
2022-08-26T05:06:21.155Z,20.31
2022-08-26T05:08:50.931Z,20.41
2022-08-26T05:11:21.426Z,20.52
2022-08-26T05:13:51.178Z,20.62
2022-08-26T05:16:19.785Z,20.69
2022-08-26T05:18:48.812Z,20.77
2022-08-26T05:21:19.662Z,20.86
2022-08-26T05:23:50.140Z,20.94
2022-08-26T05:26:23.195Z,21.01
2022-08-26T05:28:54.788Z,21.09
2022-08-26T05:31:26.569Z,21.16
2022-08-26T05:33:57.109Z,21.23
2022-08-26T05:36:28.249Z,21.30
2022-08-26T05:38:57.760Z,21.38
2022-08-26T05:41:36.195Z,21.46
2022-08-26T05:44:07.891Z,21.53
2022-08-26T05:46:38.803Z,21.61
2022-08-26T05:49:12.214Z,21.70
2022-08-26T05:51:41.752Z,21.82
2022-08-26T05:54:10.729Z,21.92
2022-08-26T05:56:39.809Z,22.02
2022-08-26T05:59:14.336Z,22.12
2022-08-26T06:01:43.389Z,22.23
2022-08-26T06:04:12.435Z,22.34
2022-08-26T06:06:41.162Z,22.46
2022-08-26T06:09:10.965Z,22.57
2022-08-26T06:11:40.254Z,22.70
2022-08-26T06:14:09.367Z,22.79
2022-08-26T06:16:40.734Z,22.89
2022-08-26T06:19:11.594Z,22.98
2022-08-26T06:21:42.817Z,23.06
2022-08-26T06:24:47.459Z,23.14
2022-08-26T06:27:16.522Z,23.23
2022-08-26T06:29:46.741Z,23.29
2022-08-26T06:32:15.227Z,23.37
2022-08-26T06:34:44.219Z,23.45
2022-08-26T06:37:12.549Z,23.53
2022-08-26T06:39:41.387Z,23.60
2022-08-26T06:42:10.945Z,23.67
2022-08-26T06:44:41.200Z,23.75
2022-08-26T06:47:10.109Z,23.80
2022-08-26T06:49:38.552Z,23.85
2022-08-26T06:52:08.245Z,23.90
2022-08-26T06:54:38.890Z,23.93
2022-08-26T06:57:08.291Z,23.96
2022-08-26T06:59:45.427Z,23.98
2022-08-26T07:02:15.210Z,24.02
2022-08-26T07:04:47.747Z,24.08
2022-08-26T07:07:16.959Z,24.14
2022-08-26T07:09:48.013Z,24.19
2022-08-26T07:12:21.178Z,24.26
2022-08-26T07:14:53.529Z,24.34
2022-08-26T07:17:28.176Z,24.39
2022-08-26T07:20:00.119Z,24.44
2022-08-26T07:22:29.117Z,24.51
2022-08-26T07:24:58.972Z,24.60
2022-08-26T07:27:32.353Z,24.69
2022-08-26T07:30:03.171Z,24.78
2022-08-26T07:32:31.969Z,24.88
2022-08-26T07:35:00.738Z,25.02
2022-08-26T07:37:29.108Z,25.15
2022-08-26T07:40:06.891Z,25.28
2022-08-26T07:42:35.556Z,25.42
2022-08-26T07:45:05.535Z,25.55
2022-08-26T07:47:33.870Z,25.71
2022-08-26T07:50:08.753Z,25.84
2022-08-26T07:52:43.252Z,26.00
2022-08-26T07:55:13.956Z,26.16
2022-08-26T07:57:43.513Z,26.31
2022-08-26T08:00:15.469Z,26.45
2022-08-26T08:02:44.833Z,26.56
2022-08-26T08:05:18.209Z,26.70
2022-08-26T08:07:48.093Z,26.85
2022-08-26T08:10:25.298Z,27.02
2022-08-26T08:13:00.719Z,27.14
2022-08-26T08:15:37.356Z,27.29
2022-08-26T08:18:15.216Z,27.48
2022-08-26T08:20:54.638Z,27.66
2022-08-26T08:23:34.993Z,27.83
2022-08-26T08:26:09.704Z,27.98
2022-08-26T08:28:39.253Z,28.13
2022-08-26T08:31:09.652Z,28.26
2022-08-26T08:33:39.072Z,28.38
2022-08-26T08:36:09.309Z,28.46
2022-08-26T08:38:38.097Z,28.56
2022-08-26T08:41:07.304Z,28.69
2022-08-26T08:43:41.563Z,28.84
2022-08-26T08:46:13.675Z,29.01
2022-08-26T08:48:49.006Z,29.13
2022-08-26T08:51:24.606Z,29.27
2022-08-26T08:53:54.750Z,29.43
2022-08-26T08:56:27.248Z,29.60
2022-08-26T08:59:04.040Z,29.80
2022-08-26T09:01:41.590Z,30.06
2022-08-26T09:04:23.343Z,30.35
2022-08-26T09:06:55.658Z,30.60
2022-08-26T09:09:34.630Z,30.85
2022-08-26T09:12:08.612Z,31.04
2022-08-26T09:14:38.007Z,31.18
2022-08-26T09:17:13.965Z,31.27
2022-08-26T09:19:47.217Z,31.26
2022-08-26T09:22:31.035Z,31.36
2022-08-26T09:24:59.709Z,31.41
2022-08-26T09:27:39.675Z,31.45
2022-08-26T09:30:11.516Z,31.55
2022-08-26T09:32:41.433Z,31.62
2022-08-26T09:35:25.546Z,31.65
2022-08-26T09:37:54.637Z,31.70
2022-08-26T09:40:28.383Z,31.81
2022-08-26T09:43:13.529Z,32.07
2022-08-26T09:45:50.764Z,32.45
2022-08-26T09:48:36.421Z,32.76
2022-08-26T09:51:28.192Z,32.90
2022-08-26T09:54:00.509Z,33.09
2022-08-26T09:56:32.081Z,33.40
2022-08-26T09:59:04.227Z,33.71
2022-08-26T10:01:37.386Z,33.92
2022-08-26T10:04:09.936Z,33.97
2022-08-26T10:06:43.759Z,34.10
2022-08-26T10:09:15.421Z,34.27
2022-08-26T10:11:47.759Z,34.32
2022-08-26T10:14:21.384Z,34.39
2022-08-26T10:16:54.388Z,34.53
2022-08-26T10:19:55.876Z,34.75
2022-08-26T10:22:25.177Z,35.07
2022-08-26T10:24:58.231Z,35.29
2022-08-26T10:27:35.413Z,35.35
2022-08-26T10:30:07.351Z,35.50
2022-08-26T10:32:41.380Z,35.70
2022-08-26T10:35:13.542Z,35.92
2022-08-26T10:37:46.071Z,36.03
2022-08-26T10:40:18.645Z,36.11
2022-08-26T10:42:52.089Z,35.95
2022-08-26T10:45:26.381Z,35.84
2022-08-26T10:48:00.749Z,35.82
2022-08-26T10:50:33.138Z,35.91
2022-08-26T10:53:07.606Z,35.92
2022-08-26T10:55:41.342Z,35.86
2022-08-26T10:58:26.278Z,35.84
2022-08-26T11:01:22.804Z,35.57
2022-08-26T11:03:59.653Z,35.36
2022-08-26T11:06:31.551Z,35.22
2022-08-26T11:09:02.760Z,35.06
2022-08-26T11:11:48.958Z,34.88
2022-08-26T11:14:58.787Z,34.77
2022-08-26T11:17:57.562Z,34.66
2022-08-26T11:20:36.710Z,34.53
2022-08-26T11:23:50.218Z,34.56
2022-08-26T11:26:36.373Z,34.80
2022-08-26T11:29:13.516Z,34.90
2022-08-26T11:32:07.339Z,34.93
2022-08-26T11:34:58.800Z,34.82
2022-08-26T11:37:35.887Z,34.66
2022-08-26T11:40:12.853Z,34.63
2022-08-26T11:42:44.358Z,34.65
2022-08-26T11:45:19.620Z,34.70
2022-08-26T11:47:49.253Z,34.85
2022-08-26T11:50:23.505Z,35.01
2022-08-26T11:53:01.329Z,35.19
2022-08-26T11:55:32.325Z,35.23
2022-08-26T11:58:04.819Z,35.33
2022-08-26T12:00:38.164Z,35.58
2022-08-26T12:03:20.809Z,35.82
2022-08-26T12:05:53.234Z,36.03
2022-08-26T12:08:25.941Z,36.29
2022-08-26T12:11:06.585Z,36.50
2022-08-26T12:13:38.392Z,36.47
2022-08-26T12:16:08.272Z,36.57
2022-08-26T12:18:39.598Z,36.74
2022-08-26T12:21:15.865Z,36.80
2022-08-26T12:23:48.237Z,37.02
2022-08-26T12:26:27.203Z,37.18
2022-08-26T12:29:02.212Z,37.26
2022-08-26T12:31:49.907Z,37.51
2022-08-26T12:34:19.623Z,37.72
2022-08-26T12:36:51.163Z,37.94
2022-08-26T12:39:28.608Z,37.98
2022-08-26T12:41:58.624Z,37.99
2022-08-26T12:44:38.344Z,37.98
2022-08-26T12:47:10.726Z,37.97
2022-08-26T12:49:43.987Z,37.94
2022-08-26T12:52:29.549Z,38.02
2022-08-26T12:55:00.143Z,38.07
2022-08-26T12:57:31.318Z,37.98
2022-08-26T13:00:30.346Z,38.00
2022-08-26T13:03:01.290Z,38.08
2022-08-26T13:05:32.940Z,38.17
2022-08-26T13:08:13.885Z,38.24
2022-08-26T13:10:45.750Z,38.50
2022-08-26T13:13:14.798Z,38.63
2022-08-26T13:15:45.724Z,38.66
2022-08-26T13:18:15.092Z,38.61
2022-08-26T13:20:46.383Z,38.63
2022-08-26T13:23:18.898Z,38.58
2022-08-26T13:25:49.862Z,38.43
2022-08-26T13:28:22.396Z,38.33
2022-08-26T13:30:50.443Z,38.39
2022-08-26T13:33:24.996Z,38.48
2022-08-26T13:35:54.485Z,38.48
2022-08-26T13:38:33.752Z,38.20
2022-08-26T13:41:03.675Z,37.80
2022-08-26T13:43:32.621Z,37.39
2022-08-26T13:46:01.640Z,36.86
2022-08-26T13:48:30.910Z,36.24
2022-08-26T13:50:59.998Z,35.74
2022-08-26T13:53:29.956Z,35.38
2022-08-26T13:55:59.498Z,35.30
2022-08-26T13:58:28.928Z,35.52
2022-08-26T14:00:58.487Z,35.79
2022-08-26T14:03:27.693Z,35.82
2022-08-26T14:05:56.565Z,35.89
2022-08-26T14:08:26.047Z,36.14
2022-08-26T14:10:54.521Z,36.25
2022-08-26T14:13:23.225Z,36.47
2022-08-26T14:15:53.173Z,36.67
2022-08-26T14:18:24.888Z,36.91
2022-08-26T14:20:55.817Z,37.00
2022-08-26T14:23:25.178Z,36.78
2022-08-26T14:25:54.280Z,36.44
2022-08-26T14:28:22.699Z,36.02
2022-08-26T14:30:53.896Z,35.57
2022-08-26T14:33:26.250Z,35.22
2022-08-26T14:36:15.641Z,34.84
2022-08-26T14:38:44.397Z,34.35
2022-08-26T14:41:13.438Z,34.04
2022-08-26T14:43:47.025Z,33.94
2022-08-26T14:46:16.054Z,33.69
2022-08-26T14:48:45.072Z,33.46
2022-08-26T14:51:13.617Z,33.29
2022-08-26T14:54:06.814Z,33.11
2022-08-26T14:56:40.334Z,32.90
2022-08-26T14:59:08.930Z,32.79
2022-08-26T15:01:43.797Z,32.96
2022-08-26T15:04:13.005Z,33.84
2022-08-26T15:06:41.471Z,34.81
2022-08-26T15:09:09.991Z,35.74
2022-08-26T15:11:38.734Z,36.56
2022-08-26T15:14:07.885Z,37.08
2022-08-26T15:16:48.483Z,37.40
2022-08-26T15:19:20.540Z,37.95
2022-08-26T15:21:50.614Z,38.15
2022-08-26T15:24:24.355Z,37.83
2022-08-26T15:26:53.603Z,37.19
2022-08-26T15:29:28.871Z,36.48
2022-08-26T15:31:59.338Z,36.13
2022-08-26T15:34:32.463Z,36.02
2022-08-26T15:37:01.585Z,35.80
2022-08-26T15:39:29.963Z,35.86
2022-08-26T15:41:59.223Z,36.40
2022-08-26T15:44:29.821Z,37.02
2022-08-26T15:46:59.981Z,37.63
2022-08-26T15:49:29.550Z,38.17
2022-08-26T15:52:00.809Z,38.52
2022-08-26T15:54:29.712Z,38.92
2022-08-26T15:57:01.773Z,39.34
2022-08-26T15:59:31.098Z,39.66
2022-08-26T16:02:00.093Z,39.87
2022-08-26T16:04:29.560Z,40.01
2022-08-26T16:06:58.329Z,39.97
2022-08-26T16:09:27.742Z,39.88
2022-08-26T16:12:00.536Z,39.79
2022-08-26T16:14:29.855Z,39.83
2022-08-26T16:16:59.696Z,39.87
2022-08-26T16:19:28.413Z,39.91
2022-08-26T16:21:56.816Z,39.97
2022-08-26T16:24:30.499Z,40.06
2022-08-26T16:26:59.975Z,40.07
2022-08-26T16:29:28.533Z,39.99
2022-08-26T16:31:57.047Z,39.74
2022-08-26T16:34:25.770Z,39.04
2022-08-26T16:36:54.621Z,38.09
2022-08-26T16:39:23.846Z,37.23
2022-08-26T16:41:53.905Z,36.50
2022-08-26T16:44:22.872Z,35.83
2022-08-26T16:46:52.981Z,35.17
2022-08-26T16:49:27.748Z,34.54
2022-08-26T16:51:56.267Z,34.06
2022-08-26T16:54:25.839Z,33.61
2022-08-26T16:56:55.237Z,33.20
2022-08-26T16:59:23.927Z,32.80
2022-08-26T17:01:53.162Z,32.43
2022-08-26T17:04:22.831Z,32.09
2022-08-26T17:06:53.348Z,31.77
2022-08-26T17:09:23.306Z,31.51
2022-08-26T17:11:51.964Z,31.29
2022-08-26T17:14:21.085Z,31.06
2022-08-26T17:16:53.035Z,30.84
2022-08-26T17:19:24.769Z,30.61
2022-08-26T17:21:53.697Z,30.39
2022-08-26T17:24:22.046Z,30.19
2022-08-26T17:26:50.764Z,30.02
2022-08-26T17:29:25.178Z,29.83
2022-08-26T17:31:56.209Z,29.70
2022-08-26T17:34:25.468Z,29.54
2022-08-26T17:36:54.477Z,29.40
2022-08-26T17:39:24.942Z,29.28
2022-08-26T17:41:53.430Z,29.16
2022-08-26T17:44:21.820Z,29.06
2022-08-26T17:46:50.275Z,28.93
2022-08-26T17:49:18.780Z,28.82
2022-08-26T17:51:47.200Z,28.72
2022-08-26T17:54:16.373Z,28.60
2022-08-26T17:56:45.178Z,28.49
2022-08-26T17:59:14.012Z,28.40
2022-08-26T18:01:42.736Z,28.30
2022-08-26T18:04:14.189Z,28.20
2022-08-26T18:06:43.108Z,28.13
2022-08-26T18:09:13.890Z,28.06
2022-08-26T18:11:42.675Z,27.96
2022-08-26T18:14:11.075Z,27.87
2022-08-26T18:16:41.290Z,27.80
2022-08-26T18:19:09.725Z,27.73
2022-08-26T18:21:39.950Z,27.65
2022-08-26T18:24:13.339Z,27.54
2022-08-26T18:26:48.444Z,27.44
2022-08-26T18:29:18.864Z,27.34
2022-08-26T18:31:50.170Z,27.27
2022-08-26T18:34:18.850Z,27.22
2022-08-26T18:36:51.055Z,27.17
2022-08-26T18:39:23.455Z,27.13
2022-08-26T18:41:52.887Z,27.08
2022-08-26T18:44:24.266Z,27.04
2022-08-26T18:46:53.192Z,27.01
2022-08-26T18:49:22.133Z,26.98
2022-08-26T18:51:51.836Z,26.94
2022-08-26T18:56:54.645Z,26.84
2022-08-26T18:59:28.385Z,26.80
2022-08-26T19:01:59.768Z,26.76
2022-08-26T19:04:28.558Z,26.72
2022-08-26T19:06:56.801Z,26.68
2022-08-26T19:09:26.045Z,26.63
2022-08-26T19:14:25.265Z,26.52
2022-08-26T19:16:54.671Z,26.47
2022-08-26T19:19:23.671Z,26.43
2022-08-26T19:21:54.733Z,26.39
2022-08-26T19:24:23.398Z,26.36
2022-08-26T19:27:00.746Z,26.32
2022-08-26T19:29:31.513Z,26.29
2022-08-26T19:32:01.396Z,26.26
2022-08-26T19:34:30.926Z,26.23
2022-08-26T19:36:59.385Z,26.19
2022-08-26T19:39:27.937Z,26.14
2022-08-26T19:41:56.366Z,26.09
2022-08-26T19:44:44.149Z,26.05
2022-08-26T19:47:14.066Z,26.01
2022-08-26T19:49:42.469Z,25.98
2022-08-26T19:52:11.757Z,25.95
2022-08-26T19:54:41.141Z,25.92
2022-08-26T19:57:09.470Z,25.88
2022-08-26T19:59:37.940Z,25.84
2022-08-26T20:02:10.648Z,25.80
2022-08-26T20:04:41.393Z,25.77
2022-08-26T20:07:13.087Z,25.72
2022-08-26T20:09:47.705Z,25.67
2022-08-26T20:12:18.397Z,25.63
2022-08-26T20:14:47.376Z,25.58
2022-08-26T20:17:17.039Z,25.54
2022-08-26T20:20:26.694Z,25.50
2022-08-26T20:23:05.013Z,25.44
2022-08-26T20:25:34.218Z,25.40
2022-08-26T20:28:04.971Z,25.36
2022-08-26T20:30:36.026Z,25.32
2022-08-26T20:33:06.699Z,25.24
2022-08-26T20:35:35.360Z,25.19
2022-08-26T20:38:05.153Z,25.13
2022-08-26T20:40:35.001Z,25.09
2022-08-26T20:43:05.866Z,25.05
2022-08-26T20:45:35.759Z,25.02
2022-08-26T20:48:05.216Z,24.97
2022-08-26T20:50:34.211Z,24.90
2022-08-26T20:53:06.864Z,24.84
2022-08-26T20:55:35.794Z,24.79
2022-08-26T20:58:04.687Z,24.74
2022-08-26T21:00:32.965Z,24.70
2022-08-26T21:03:01.891Z,24.66
2022-08-26T21:05:30.597Z,24.63
2022-08-26T21:07:59.701Z,24.60
2022-08-26T21:10:30.125Z,24.56
2022-08-26T21:12:59.419Z,24.54
2022-08-26T21:15:27.801Z,24.51
2022-08-26T21:17:56.806Z,24.48
2022-08-26T21:20:25.488Z,24.44
2022-08-26T21:22:56.204Z,24.42
2022-08-26T21:25:25.574Z,24.39
2022-08-26T21:27:55.172Z,24.36
2022-08-26T21:30:24.112Z,24.32
2022-08-26T21:32:53.735Z,24.28
2022-08-26T21:35:22.594Z,24.24
2022-08-26T21:37:51.494Z,24.19
2022-08-26T21:40:21.599Z,24.14
2022-08-26T21:42:50.262Z,24.10
2022-08-26T21:45:21.740Z,24.06
2022-08-26T21:47:51.215Z,24.01
2022-08-26T21:50:19.848Z,23.96
2022-08-26T21:52:48.308Z,23.91
2022-08-26T21:55:17.688Z,23.88
2022-08-26T21:57:45.911Z,23.83
2022-08-26T22:00:18.720Z,23.78
2022-08-26T22:02:49.716Z,23.75
2022-08-26T22:05:18.683Z,23.72
2022-08-26T22:07:47.118Z,23.69
2022-08-26T22:10:15.463Z,23.66
2022-08-26T22:12:44.170Z,23.63
2022-08-26T22:15:12.999Z,23.60
2022-08-26T22:17:41.668Z,23.57
2022-08-26T22:20:16.735Z,23.54
2022-08-26T22:22:45.736Z,23.49
2022-08-26T22:25:15.071Z,23.46
2022-08-26T22:27:48.638Z,23.43
2022-08-26T22:30:19.301Z,23.40
2022-08-26T22:32:50.216Z,23.37
2022-08-26T22:35:29.025Z,23.34
2022-08-26T22:37:58.903Z,23.31
2022-08-26T22:40:28.527Z,23.28
2022-08-26T22:42:59.975Z,23.26
2022-08-26T22:45:30.837Z,23.25
2022-08-26T22:47:59.798Z,23.23
2022-08-26T22:50:32.407Z,23.18
2022-08-26T22:53:01.547Z,23.14
2022-08-26T22:55:30.024Z,23.11
2022-08-26T22:57:59.013Z,23.07
2022-08-26T23:00:32.010Z,23.04
2022-08-26T23:03:01.628Z,23.01
2022-08-26T23:05:32.281Z,22.97
2022-08-26T23:08:01.548Z,22.94
2022-08-26T23:10:30.448Z,22.90
2022-08-26T23:13:01.320Z,22.86
2022-08-26T23:15:30.991Z,22.83
2022-08-26T23:18:00.485Z,22.79
2022-08-26T23:20:29.831Z,22.75
2022-08-26T23:22:59.611Z,22.71
2022-08-26T23:25:29.363Z,22.68
2022-08-26T23:27:59.228Z,22.64
2022-08-26T23:30:30.919Z,22.59
2022-08-26T23:32:59.295Z,22.54
2022-08-26T23:35:28.414Z,22.52
2022-08-26T23:37:58.918Z,22.51
2022-08-26T23:40:29.687Z,22.49
2022-08-26T23:43:00.038Z,22.47
2022-08-26T23:45:28.760Z,22.45
2022-08-26T23:47:57.100Z,22.43
2022-08-26T23:50:47.955Z,22.40
2022-08-26T23:53:19.923Z,22.37
2022-08-26T23:55:50.740Z,22.35
2022-08-26T23:58:20.835Z,22.32
